createdAt,value
2017-12-25T00:01:28.871Z,6.50
2017-12-25T00:03:56.300Z,6.70
2017-12-25T00:06:23.732Z,7.83
2017-12-25T00:08:51.148Z,7.70
2017-12-25T00:11:18.592Z,7.30
2017-12-25T00:13:46.012Z,7.07
2017-12-25T00:16:13.432Z,6.80
2017-12-25T00:18:41.195Z,6.47
2017-12-25T00:21:08.626Z,6.23
2017-12-25T00:23:36.047Z,6.93
2017-12-25T00:26:03.489Z,6.73
2017-12-25T00:28:30.904Z,6.97
2017-12-25T00:30:58.872Z,7.63
2017-12-25T00:33:26.303Z,8.07
2017-12-25T00:35:54.123Z,8.07
2017-12-25T00:38:21.557Z,8.57
2017-12-25T00:40:48.979Z,8.70
2017-12-25T00:43:16.424Z,8.17
2017-12-25T00:45:44.244Z,7.93
2017-12-25T00:48:11.672Z,8.57
2017-12-25T00:50:39.106Z,8.60
2017-12-25T00:53:06.532Z,8.80
2017-12-25T00:55:33.951Z,9.70
2017-12-25T00:58:01.395Z,10.63
2017-12-25T01:00:28.823Z,9.10
2017-12-25T01:02:56.253Z,9.40
2017-12-25T01:05:23.693Z,9.37
2017-12-25T01:07:51.116Z,9.27
2017-12-25T01:10:18.543Z,9.23
2017-12-25T01:12:45.984Z,9.47
2017-12-25T01:15:13.808Z,10.20
2017-12-25T01:17:41.240Z,9.80
2017-12-25T01:20:08.694Z,9.30
2017-12-25T01:22:36.120Z,9.60
2017-12-25T01:25:03.936Z,8.70
2017-12-25T01:27:31.473Z,9.90
2017-12-25T01:29:58.899Z,9.73
2017-12-25T01:32:26.334Z,9.97
2017-12-25T01:34:54.167Z,10.00
2017-12-25T01:37:21.597Z,9.27
2017-12-25T01:39:49.028Z,10.73
2017-12-25T01:42:16.467Z,10.97
2017-12-25T01:44:44.296Z,10.40
2017-12-25T01:47:11.725Z,10.20
2017-12-25T01:49:39.261Z,10.57
2017-12-25T01:52:06.700Z,12.27
2017-12-25T01:54:36.033Z,11.17
2017-12-25T02:32:12.744Z,12.03
2017-12-25T02:34:40.175Z,10.63
2017-12-25T02:37:07.606Z,11.73
2017-12-25T02:39:35.040Z,10.17
2017-12-25T02:42:02.861Z,10.63
2017-12-25T02:44:30.289Z,11.37
2017-12-25T02:46:58.839Z,12.37
2017-12-25T02:49:26.664Z,11.87
2017-12-25T02:51:54.096Z,11.80
2017-12-25T02:54:21.851Z,11.40
2017-12-25T02:56:49.288Z,12.30
2017-12-25T02:59:16.717Z,11.23
2017-12-25T03:01:44.163Z,11.37
2017-12-25T03:04:11.595Z,12.73
2017-12-25T03:06:39.026Z,12.07
2017-12-25T03:09:06.481Z,13.47
2017-12-25T03:11:33.905Z,11.63
2017-12-25T03:14:01.730Z,11.93
2017-12-25T03:16:29.367Z,10.03
2017-12-25T03:18:56.796Z,12.60
2017-12-25T03:21:24.223Z,11.60
2017-12-25T03:23:52.404Z,12.60
2017-12-25T03:26:20.229Z,12.10
2017-12-25T03:28:47.654Z,12.40
2017-12-25T03:31:15.092Z,11.50
2017-12-25T03:33:42.508Z,11.43
2017-12-25T03:36:10.231Z,10.40
2017-12-25T03:38:37.659Z,8.97
2017-12-25T03:41:05.082Z,10.70
2017-12-25T03:43:32.516Z,10.27
2017-12-25T03:45:59.945Z,10.27
2017-12-25T03:48:27.376Z,10.80
2017-12-25T03:50:54.831Z,9.23
2017-12-25T03:53:22.255Z,9.07
2017-12-25T03:55:49.685Z,9.30
2017-12-25T03:58:17.110Z,10.10
2017-12-25T04:00:44.539Z,8.03
2017-12-25T04:03:12.376Z,9.00
2017-12-25T04:05:39.806Z,8.77
2017-12-25T04:08:07.225Z,8.07
2017-12-25T04:10:34.668Z,8.67
2017-12-25T04:13:02.488Z,8.67
2017-12-25T04:15:29.916Z,9.17
2017-12-25T04:17:57.360Z,8.33
2017-12-25T04:20:24.780Z,8.30
2017-12-25T04:22:52.605Z,7.43
2017-12-25T04:25:20.048Z,7.40
2017-12-25T04:27:47.467Z,7.27
2017-12-25T04:30:15.284Z,8.73
2017-12-25T04:32:43.628Z,7.50
2017-12-25T04:35:11.056Z,7.23
2017-12-25T04:37:38.880Z,7.60
2017-12-25T04:40:06.340Z,7.43
2017-12-25T04:42:33.758Z,8.20
2017-12-25T04:45:01.185Z,8.17
2017-12-25T04:47:29.048Z,7.27
2017-12-25T04:49:56.864Z,6.83
2017-12-25T04:52:24.286Z,6.87
2017-12-25T04:54:51.732Z,6.30
2017-12-25T04:57:19.159Z,7.20
2017-12-25T04:59:46.576Z,7.20
2017-12-25T05:02:14.022Z,6.33
2017-12-25T05:04:41.440Z,7.10
2017-12-25T05:07:09.281Z,7.93
2017-12-25T05:09:36.723Z,7.77
2017-12-25T05:12:04.147Z,8.03
2017-12-25T05:14:31.572Z,7.10
2017-12-25T05:16:59.387Z,5.83
2017-12-25T05:19:26.819Z,7.23
2017-12-25T05:21:54.263Z,7.13
2017-12-25T05:24:21.689Z,7.50
2017-12-25T05:26:49.504Z,7.30
2017-12-25T05:29:16.926Z,6.33
2017-12-25T05:31:44.357Z,6.80
2017-12-25T05:34:13.086Z,6.33
2017-12-25T05:36:40.531Z,6.23
2017-12-25T05:39:07.949Z,6.10
2017-12-25T05:41:35.403Z,5.73
2017-12-25T05:44:02.820Z,5.83
2017-12-25T05:46:30.245Z,5.20
2017-12-25T05:48:57.664Z,6.30
2017-12-25T05:51:25.107Z,5.63
2017-12-25T05:53:52.529Z,5.13
2017-12-25T05:56:19.956Z,4.77
2017-12-25T05:58:47.380Z,5.50
2017-12-25T06:01:14.911Z,4.60
2017-12-25T06:03:42.336Z,5.13
2017-12-25T06:06:09.767Z,4.87
2017-12-25T06:08:37.608Z,4.70
2017-12-25T06:11:05.028Z,4.10
2017-12-25T06:13:32.448Z,4.10
2017-12-25T06:15:59.889Z,3.63
2017-12-25T06:18:27.713Z,3.67
2017-12-25T06:20:55.132Z,3.67
2017-12-25T06:23:22.568Z,3.67
2017-12-25T06:25:50.383Z,3.90
2017-12-25T06:28:17.812Z,4.70
2017-12-25T06:30:45.260Z,4.43
2017-12-25T06:33:12.668Z,4.60
2017-12-25T06:35:40.100Z,4.83
2017-12-25T06:38:07.844Z,4.47
2017-12-25T06:40:35.272Z,4.93
2017-12-25T06:43:02.693Z,5.23
2017-12-25T06:45:30.131Z,5.20
2017-12-25T06:47:57.555Z,5.50
2017-12-25T06:50:24.967Z,6.27
2017-12-25T06:52:52.788Z,6.73
2017-12-25T06:55:20.212Z,7.60
2017-12-25T06:57:47.655Z,7.77
2017-12-25T07:00:15.484Z,8.30
2017-12-25T07:02:42.913Z,9.27
2017-12-25T07:05:10.363Z,8.43
2017-12-25T07:07:37.785Z,8.77
2017-12-25T07:10:05.221Z,9.13
2017-12-25T07:12:32.665Z,10.30
2017-12-25T07:15:00.284Z,9.63
2017-12-25T07:17:27.715Z,9.10
2017-12-25T07:19:55.144Z,8.73
2017-12-25T07:22:22.972Z,9.67
2017-12-25T07:24:50.408Z,9.80
2017-12-25T07:27:17.856Z,9.60
2017-12-25T07:29:45.289Z,9.57
2017-12-25T07:32:12.720Z,10.50
2017-12-25T07:34:40.153Z,10.20
2017-12-25T07:37:07.579Z,9.63
2017-12-25T07:39:35.352Z,11.10
2017-12-25T07:42:02.792Z,10.87
2017-12-25T07:44:30.234Z,11.20
2017-12-25T07:46:57.685Z,11.27
2017-12-25T07:49:25.108Z,11.80
2017-12-25T07:51:52.539Z,10.43
2017-12-25T07:54:20.237Z,11.80
2017-12-25T07:56:48.065Z,11.50
2017-12-25T07:59:15.493Z,12.03
2017-12-25T08:01:42.950Z,12.13
2017-12-25T08:04:10.380Z,11.10
2017-12-25T08:06:37.807Z,13.33
2017-12-25T08:09:05.424Z,13.03
2017-12-25T08:11:32.855Z,12.20
2017-12-25T08:14:00.283Z,12.10
2017-12-25T08:16:28.116Z,11.80
2017-12-25T08:18:55.889Z,10.23
2017-12-25T08:21:23.318Z,11.20
2017-12-25T08:23:50.769Z,11.20
2017-12-25T08:26:18.201Z,11.53
2017-12-25T08:28:45.631Z,12.63
2017-12-25T08:31:14.279Z,9.20
2017-12-25T08:33:41.716Z,11.07
2017-12-25T08:36:09.149Z,10.90
2017-12-25T08:38:36.575Z,13.53
2017-12-25T08:41:04.404Z,12.40
2017-12-25T08:43:32.025Z,11.83
2017-12-25T08:45:59.457Z,12.70
2017-12-25T08:48:27.276Z,11.40
2017-12-25T08:50:54.722Z,12.27
2017-12-25T08:53:22.148Z,11.63
2017-12-25T08:55:49.588Z,11.80
2017-12-25T08:58:17.411Z,12.17
2017-12-25T09:00:44.845Z,14.47
2017-12-25T09:03:12.268Z,14.33
2017-12-25T09:05:39.727Z,12.70
2017-12-25T09:08:07.162Z,12.77
2017-12-25T09:10:34.991Z,11.00
2017-12-25T09:13:02.432Z,13.17
2017-12-25T09:15:29.868Z,10.33
2017-12-25T09:17:57.296Z,11.70
2017-12-25T09:20:26.025Z,11.57
2017-12-25T09:22:53.456Z,10.07
2017-12-25T09:25:20.888Z,10.53
2017-12-25T09:27:48.723Z,10.60
2017-12-25T09:30:16.151Z,11.93
2017-12-25T09:32:43.584Z,11.30
2017-12-25T09:35:11.043Z,11.53
2017-12-25T09:37:38.468Z,11.83
2017-12-25T09:40:06.289Z,12.40
2017-12-25T09:42:33.743Z,14.60
2017-12-25T09:45:01.182Z,10.97
2017-12-25T09:47:28.649Z,11.17
2017-12-25T09:49:56.092Z,12.87
2017-12-25T09:52:23.530Z,11.27
2017-12-25T09:54:50.955Z,13.23
2017-12-25T09:57:18.809Z,12.67
2017-12-25T09:59:46.236Z,12.90
2017-12-25T10:02:13.673Z,12.17
2017-12-25T10:04:41.109Z,12.70
2017-12-25T10:07:08.548Z,11.03
2017-12-25T10:09:36.475Z,11.73
2017-12-25T10:12:03.904Z,10.33
2017-12-25T10:14:31.343Z,12.10
2017-12-25T10:16:58.895Z,11.27
2017-12-25T10:19:26.324Z,10.13
2017-12-25T10:21:54.147Z,8.83
2017-12-25T10:24:21.595Z,9.00
2017-12-25T10:26:49.024Z,11.17
2017-12-25T10:29:16.447Z,12.57
2017-12-25T10:31:43.875Z,9.77
2017-12-25T10:34:11.309Z,9.73
2017-12-25T10:36:38.753Z,11.20
2017-12-25T10:39:06.185Z,10.80
2017-12-25T10:41:34.009Z,9.67
2017-12-25T10:44:01.458Z,10.47
2017-12-25T10:46:28.893Z,10.47
2017-12-25T10:48:56.315Z,9.40
2017-12-25T10:51:23.745Z,10.00
2017-12-25T10:53:51.283Z,10.33
2017-12-25T10:56:18.710Z,9.40
2017-12-25T10:58:46.144Z,9.43
2017-12-25T11:01:13.568Z,9.50
2017-12-25T11:03:41.000Z,10.23
2017-12-25T11:06:08.457Z,9.80
2017-12-25T11:08:35.872Z,9.60
2017-12-25T11:11:03.301Z,10.27
2017-12-25T11:13:31.145Z,9.10
2017-12-25T11:15:58.571Z,8.73
2017-12-25T11:18:26.126Z,9.47
2017-12-25T11:20:53.566Z,8.70
2017-12-25T11:23:20.995Z,9.53
2017-12-25T11:25:48.420Z,9.60
2017-12-25T11:28:15.869Z,9.17
2017-12-25T11:30:43.292Z,9.50
2017-12-25T11:33:10.821Z,9.00
2017-12-25T11:35:38.256Z,9.20
2017-12-25T11:38:06.078Z,9.53
2017-12-25T11:40:33.495Z,9.80
2017-12-25T11:43:00.928Z,8.00
2017-12-25T11:45:28.749Z,8.13
2017-12-25T11:47:56.456Z,9.03
2017-12-25T11:50:23.885Z,8.50
2017-12-25T11:52:51.309Z,8.77
2017-12-25T11:55:19.008Z,8.40
2017-12-25T11:57:46.435Z,8.00
2017-12-25T12:00:13.860Z,8.73
2017-12-25T12:02:41.300Z,9.30
2017-12-25T12:05:09.121Z,7.80
2017-12-25T12:07:36.551Z,8.37
2017-12-25T12:10:03.979Z,8.47
2017-12-25T12:12:31.415Z,8.27
2017-12-25T12:14:59.247Z,8.20
2017-12-25T12:17:26.673Z,7.80
2017-12-25T12:19:54.260Z,8.90
2017-12-25T12:22:21.688Z,8.00
2017-12-25T12:24:49.117Z,8.67
2017-12-25T12:27:16.573Z,8.17
2017-12-25T12:29:43.995Z,7.37
2017-12-25T12:32:11.421Z,7.00
2017-12-25T12:34:39.371Z,8.10
2017-12-25T12:37:06.796Z,7.30
2017-12-25T12:39:34.215Z,7.63
2017-12-25T12:42:01.663Z,7.90
2017-12-25T12:44:29.092Z,7.10
2017-12-25T12:46:56.525Z,7.60
2017-12-25T12:49:23.976Z,6.90
2017-12-25T12:51:51.408Z,8.80
2017-12-25T12:54:19.249Z,10.10
2017-12-25T12:56:47.495Z,7.97
2017-12-25T12:59:14.924Z,8.00
2017-12-25T13:01:42.347Z,7.80
2017-12-25T13:04:10.171Z,7.53
2017-12-25T13:06:37.602Z,8.50
2017-12-25T13:09:05.030Z,8.03
2017-12-25T13:11:32.468Z,6.80
2017-12-25T13:13:59.896Z,7.70
2017-12-25T13:16:27.323Z,8.30
2017-12-25T13:18:54.997Z,8.80
2017-12-25T13:21:22.421Z,8.53
2017-12-25T13:23:50.245Z,7.90
2017-12-25T13:26:17.784Z,6.60
2017-12-25T13:28:45.222Z,8.20
2017-12-25T13:31:12.646Z,7.97
2017-12-25T13:33:40.484Z,8.13
2017-12-25T13:36:08.149Z,8.37
2017-12-25T13:38:35.576Z,7.30
2017-12-25T13:41:03.008Z,7.87
2017-12-25T13:43:30.425Z,7.27
2017-12-25T13:45:58.249Z,8.47
2017-12-25T13:48:25.684Z,7.63
2017-12-25T13:50:53.105Z,7.40
2017-12-25T13:53:20.938Z,7.10
2017-12-25T13:55:48.352Z,7.13
2017-12-25T13:58:15.780Z,8.20
2017-12-25T14:00:43.716Z,7.23
2017-12-25T14:03:11.151Z,7.97
2017-12-25T14:05:38.568Z,8.20
2017-12-25T14:08:06.026Z,7.23
2017-12-25T14:10:33.440Z,7.03
2017-12-25T14:13:00.864Z,7.30
2017-12-25T14:15:28.299Z,7.60
2017-12-25T14:17:55.721Z,6.50
2017-12-25T14:20:23.547Z,7.70
2017-12-25T14:22:50.989Z,7.97
2017-12-25T14:25:18.413Z,7.20
2017-12-25T14:27:45.835Z,6.57
2017-12-25T14:30:13.377Z,7.43
2017-12-25T14:32:40.796Z,6.70
2017-12-25T14:35:08.221Z,5.30
2017-12-25T14:37:36.095Z,6.70
2017-12-25T14:40:03.904Z,6.50
2017-12-25T14:42:31.333Z,6.83
2017-12-25T14:44:58.790Z,7.40
2017-12-25T14:47:26.220Z,6.40
2017-12-25T14:49:54.032Z,7.53
2017-12-25T14:52:21.468Z,8.63
2017-12-25T14:54:48.895Z,5.83
2017-12-25T14:57:16.316Z,7.07
2017-12-25T14:59:43.736Z,6.10
2017-12-25T15:02:11.169Z,7.47
2017-12-25T15:04:38.584Z,6.53
2017-12-25T15:07:06.041Z,7.03
2017-12-25T15:09:33.861Z,5.60
2017-12-25T15:12:01.285Z,6.23
2017-12-25T15:14:28.723Z,6.10
2017-12-25T15:16:56.539Z,5.70
2017-12-25T15:19:23.958Z,5.60
2017-12-25T15:21:51.380Z,5.63
2017-12-25T15:24:18.799Z,5.63
2017-12-25T15:26:46.449Z,4.80
2017-12-25T15:29:13.853Z,4.40
2017-12-25T15:31:41.680Z,5.13
2017-12-25T15:34:09.109Z,4.30
2017-12-25T15:36:36.524Z,3.97
2017-12-25T15:39:03.955Z,4.20
2017-12-25T15:41:31.400Z,4.20
2017-12-25T15:43:58.832Z,3.80
2017-12-25T15:46:26.282Z,3.47
2017-12-25T15:48:53.704Z,3.60
2017-12-25T15:51:21.516Z,4.13
2017-12-25T15:53:49.176Z,4.70
2017-12-25T15:56:16.612Z,5.00
2017-12-25T15:58:44.032Z,5.37
2017-12-25T16:01:11.856Z,4.53
2017-12-25T16:03:39.278Z,4.20
2017-12-25T16:06:06.714Z,4.97
2017-12-25T16:08:34.533Z,5.30
2017-12-25T16:11:01.956Z,4.97
2017-12-25T16:13:29.392Z,5.70
2017-12-25T16:15:57.214Z,5.40
2017-12-25T16:18:24.660Z,7.07
2017-12-25T16:20:52.080Z,7.30
2017-12-25T16:23:19.501Z,5.90
2017-12-25T16:25:46.934Z,7.40
2017-12-25T16:28:14.358Z,7.40
2017-12-25T16:30:41.778Z,6.67
2017-12-25T16:33:09.632Z,6.60
2017-12-25T16:35:37.457Z,7.40
2017-12-25T16:38:04.875Z,6.57
2017-12-25T16:40:32.658Z,8.20
2017-12-25T16:43:00.075Z,6.60
2017-12-25T16:45:27.901Z,6.30
2017-12-25T16:47:55.349Z,6.17
2017-12-25T16:50:22.773Z,6.40
2017-12-25T16:52:50.187Z,7.07
2017-12-25T16:55:17.608Z,6.77
2017-12-25T16:57:45.032Z,6.13
2017-12-25T17:00:12.464Z,6.00
2017-12-25T17:02:40.283Z,6.27
2017-12-25T17:05:07.703Z,5.10
2017-12-25T17:07:35.142Z,4.73
2017-12-25T17:10:03.249Z,4.97
2017-12-25T17:12:30.667Z,5.30
2017-12-25T17:14:58.488Z,4.93
2017-12-25T17:17:25.918Z,4.10
2017-12-25T17:19:53.336Z,4.10
2017-12-25T17:22:21.350Z,4.30
2017-12-25T17:24:48.764Z,3.87
2017-12-25T17:27:16.586Z,3.83
2017-12-25T17:29:44.009Z,4.00
2017-12-25T17:32:11.429Z,3.80
2017-12-25T17:34:39.244Z,3.90
2017-12-25T17:37:06.670Z,3.87
2017-12-25T17:39:34.091Z,4.53
2017-12-25T17:42:01.812Z,4.80
2017-12-25T17:44:29.232Z,4.73
2017-12-25T17:46:56.657Z,8.50
2017-12-25T17:49:24.383Z,4.70
2017-12-25T17:51:51.812Z,5.10
2017-12-25T17:54:19.227Z,5.27
2017-12-25T17:56:46.956Z,4.90
2017-12-25T17:59:14.381Z,5.27
2017-12-25T18:01:41.802Z,4.57
2017-12-25T18:04:09.228Z,5.17
2017-12-25T18:06:36.648Z,5.70
2017-12-25T18:09:04.424Z,5.80
2017-12-25T18:11:31.852Z,4.70
2017-12-25T18:13:59.272Z,7.17
2017-12-25T18:16:27.096Z,6.80
2017-12-25T18:18:54.521Z,6.40
2017-12-25T18:21:21.939Z,6.07
2017-12-25T18:23:49.388Z,7.23
2017-12-25T18:26:16.820Z,6.40
2017-12-25T18:28:44.243Z,7.30
2017-12-25T18:31:11.676Z,8.20
2017-12-25T18:33:39.519Z,7.13
2017-12-25T18:36:06.915Z,7.67
2017-12-25T18:38:34.362Z,8.20
2017-12-25T18:41:02.499Z,7.37
2017-12-25T18:43:29.857Z,6.73
2017-12-25T18:45:57.561Z,7.10
2017-12-25T18:48:24.980Z,7.10
2017-12-25T18:50:52.414Z,7.87
2017-12-25T18:53:20.053Z,7.90
2017-12-25T18:55:47.479Z,7.60
2017-12-25T18:58:14.908Z,8.60
2017-12-25T19:00:42.736Z,8.20
2017-12-25T19:03:10.171Z,8.20
2017-12-25T19:05:37.598Z,7.10
2017-12-25T19:08:05.433Z,6.80
2017-12-25T19:10:32.852Z,6.77
2017-12-25T19:13:00.281Z,6.70
2017-12-25T19:15:27.708Z,6.60
2017-12-25T19:17:55.620Z,7.00
2017-12-25T19:20:23.032Z,7.60
2017-12-25T19:22:50.852Z,8.10
2017-12-25T19:25:18.291Z,8.17
2017-12-25T19:27:46.157Z,6.13
2017-12-25T19:30:13.565Z,6.20
2017-12-25T19:32:41.393Z,5.60
2017-12-25T19:35:08.827Z,6.20
2017-12-25T19:37:36.247Z,6.10
2017-12-25T19:40:04.073Z,5.77
2017-12-25T19:42:31.500Z,6.03
2017-12-25T19:44:58.936Z,6.90
2017-12-25T19:47:26.344Z,5.67
2017-12-25T19:49:53.779Z,6.80
2017-12-25T19:52:21.217Z,6.60
2017-12-25T19:54:48.668Z,5.20
2017-12-25T19:57:16.096Z,6.00
2017-12-25T19:59:43.916Z,6.80
2017-12-25T20:02:11.448Z,6.03
2017-12-25T20:04:38.871Z,7.27
2017-12-25T20:07:06.688Z,8.60
2017-12-25T20:09:34.140Z,8.40
2017-12-25T20:12:01.575Z,10.23
2017-12-25T20:14:29.007Z,12.10
2017-12-25T20:16:56.449Z,10.87
2017-12-25T20:19:24.276Z,10.20
2017-12-25T20:21:51.711Z,11.80
2017-12-25T20:24:19.165Z,11.23
2017-12-25T20:26:46.661Z,10.70
2017-12-25T20:29:14.029Z,12.47
2017-12-25T20:31:41.852Z,11.70
2017-12-25T20:34:09.286Z,12.87
2017-12-25T20:36:37.042Z,11.57
2017-12-25T20:39:04.464Z,12.23
2017-12-25T20:41:32.292Z,11.43
2017-12-25T20:43:59.792Z,10.40
2017-12-25T20:46:27.156Z,11.40
2017-12-25T20:48:54.612Z,10.53
2017-12-25T20:51:22.353Z,10.73
2017-12-25T20:53:49.776Z,11.00
2017-12-25T20:56:18.236Z,11.13
2017-12-25T20:58:45.683Z,10.47
2017-12-25T21:01:13.108Z,11.00
2017-12-25T21:03:40.560Z,10.20
2017-12-25T21:06:07.993Z,10.60
2017-12-25T21:08:35.423Z,11.10
2017-12-25T21:11:03.149Z,9.90
2017-12-25T21:13:30.561Z,10.50
2017-12-25T21:15:58.001Z,9.80
2017-12-25T21:18:25.465Z,10.00
2017-12-25T21:20:52.897Z,9.20
2017-12-25T21:23:20.332Z,9.70
2017-12-25T21:25:47.776Z,9.33
2017-12-25T21:28:15.203Z,9.27
2017-12-25T21:30:43.025Z,9.70
2017-12-25T21:33:10.485Z,9.43
2017-12-25T21:35:37.956Z,9.40
2017-12-25T21:38:05.384Z,9.27
2017-12-25T21:40:33.148Z,8.10
2017-12-25T21:43:00.575Z,10.00
2017-12-25T21:45:28.000Z,9.83
2017-12-25T21:47:55.839Z,9.63
2017-12-25T21:50:23.279Z,9.33
2017-12-25T21:52:50.715Z,8.33
2017-12-25T21:55:18.141Z,9.40
2017-12-25T21:57:45.955Z,9.17
2017-12-25T22:00:13.655Z,9.70
2017-12-25T22:02:41.484Z,10.47
2017-12-25T22:05:08.915Z,9.53
2017-12-25T22:07:36.369Z,9.10
2017-12-25T22:10:03.802Z,10.57
2017-12-25T22:12:31.224Z,9.10
2017-12-25T22:14:58.916Z,9.30
2017-12-25T22:17:26.368Z,11.10
2017-12-25T22:19:53.813Z,9.57
2017-12-25T22:22:21.636Z,10.93
2017-12-25T22:24:49.096Z,10.00
2017-12-25T22:27:16.531Z,11.90
2017-12-25T22:29:43.956Z,11.33
2017-12-25T22:32:11.408Z,10.43
2017-12-25T22:34:38.840Z,11.33
2017-12-25T22:37:06.667Z,11.40
2017-12-25T22:39:34.946Z,11.47
2017-12-25T22:42:02.384Z,11.40
2017-12-25T22:44:29.820Z,11.20
2017-12-25T22:46:57.268Z,11.10
2017-12-25T22:49:24.706Z,10.60
2017-12-25T22:51:52.535Z,10.27
2017-12-25T22:54:19.991Z,11.20
2017-12-25T22:56:47.433Z,10.20
2017-12-25T22:59:14.882Z,10.50
2017-12-25T23:01:42.331Z,11.93
2017-12-25T23:04:09.778Z,10.67
2017-12-25T23:06:37.204Z,11.07
2017-12-25T23:09:04.722Z,11.37
2017-12-25T23:11:32.152Z,13.93
2017-12-25T23:13:59.586Z,10.83
2017-12-25T23:16:27.016Z,9.77
2017-12-25T23:18:54.844Z,9.33
2017-12-25T23:21:22.276Z,10.50
2017-12-25T23:23:49.707Z,10.00
2017-12-25T23:26:17.148Z,9.20
2017-12-25T23:28:44.972Z,8.97
2017-12-25T23:31:12.422Z,7.83
2017-12-25T23:33:39.854Z,8.87
2017-12-25T23:36:07.617Z,9.77
2017-12-25T23:38:35.048Z,8.00
2017-12-25T23:41:02.471Z,8.83
2017-12-25T23:43:29.910Z,8.47
2017-12-25T23:45:57.341Z,7.87
2017-12-25T23:48:24.769Z,8.77
2017-12-25T23:50:52.475Z,8.20
2017-12-25T23:53:19.907Z,9.37
2017-12-25T23:55:47.346Z,7.20
2017-12-25T23:58:15.024Z,7.57
